createdAt,value
2019-03-06T00:01:50.898Z,3.20
2019-03-06T00:04:20.352Z,3.20
2019-03-06T00:06:49.893Z,3.20
2019-03-06T00:09:19.674Z,3.20
2019-03-06T00:11:49.924Z,3.20
2019-03-06T00:14:20.134Z,3.20
2019-03-06T00:16:50.164Z,3.20
2019-03-06T00:19:20.216Z,3.20
2019-03-06T00:21:50.309Z,3.20
2019-03-06T00:24:20.450Z,3.30
2019-03-06T00:26:50.558Z,3.30
2019-03-06T00:29:20.750Z,3.30
2019-03-06T00:31:50.794Z,3.30
2019-03-06T00:34:21.034Z,3.30
2019-03-06T00:36:52.093Z,3.30
2019-03-06T00:39:21.686Z,3.30
2019-03-06T00:41:51.363Z,3.30
2019-03-06T00:44:21.562Z,3.30
2019-03-06T00:46:51.594Z,3.30
2019-03-06T00:49:22.109Z,3.30
2019-03-06T00:51:51.938Z,3.30
2019-03-06T00:54:22.063Z,3.30
2019-03-06T00:56:52.148Z,3.30
2019-03-06T00:59:22.292Z,3.30
2019-03-06T01:01:52.500Z,3.30
2019-03-06T01:04:22.613Z,3.30
2019-03-06T01:06:52.964Z,3.30
2019-03-06T01:09:22.921Z,3.30
2019-03-06T01:11:52.905Z,3.30
2019-03-06T01:14:23.092Z,3.30
2019-03-06T01:16:53.263Z,3.30
2019-03-06T01:19:23.396Z,3.30
2019-03-06T01:21:56.516Z,3.30
2019-03-06T01:24:25.973Z,3.30
2019-03-06T01:26:58.065Z,3.30
2019-03-06T01:29:29.010Z,3.30
2019-03-06T01:31:58.447Z,3.30
2019-03-06T01:34:35.794Z,3.30
2019-03-06T01:37:09.728Z,3.30
2019-03-06T01:39:40.808Z,3.30
2019-03-06T01:42:11.902Z,3.30
2019-03-06T01:44:42.994Z,3.30
2019-03-06T01:47:12.423Z,3.30
2019-03-06T01:49:41.857Z,3.40
2019-03-06T01:52:11.306Z,3.40
2019-03-06T01:54:40.733Z,3.40
2019-03-06T01:57:10.248Z,3.40
2019-03-06T01:59:39.671Z,3.40
2019-03-06T02:02:09.416Z,3.40
2019-03-06T02:04:40.463Z,3.50
2019-03-06T02:07:10.409Z,3.50
2019-03-06T02:09:40.123Z,3.50
2019-03-06T02:12:10.635Z,3.50
2019-03-06T02:14:40.136Z,3.50
2019-03-06T02:17:09.594Z,3.50
2019-03-06T02:19:39.359Z,3.50
2019-03-06T02:22:08.902Z,3.50
2019-03-06T02:24:38.350Z,3.50
2019-03-06T02:27:07.808Z,3.50
2019-03-06T02:29:37.259Z,3.50
2019-03-06T02:32:06.792Z,3.60
2019-03-06T02:34:36.222Z,3.60
2019-03-06T02:37:08.672Z,3.70
2019-03-06T02:39:40.884Z,3.70
2019-03-06T02:42:10.355Z,3.80
2019-03-06T02:44:41.409Z,3.80
2019-03-06T02:47:10.881Z,3.90
2019-03-06T02:49:40.374Z,3.90
2019-03-06T02:52:09.826Z,4.00
2019-03-06T02:54:39.268Z,4.00
2019-03-06T02:57:08.785Z,4.10
2019-03-06T02:59:39.921Z,4.10
2019-03-06T03:02:11.027Z,4.10
2019-03-06T03:04:45.277Z,4.20
2019-03-06T03:07:14.715Z,4.20
2019-03-06T03:09:44.207Z,4.20
2019-03-06T03:12:15.278Z,4.10
2019-03-06T03:14:44.691Z,4.20
2019-03-06T03:17:14.223Z,4.10
2019-03-06T03:19:43.701Z,4.20
2019-03-06T03:22:14.804Z,4.10
2019-03-06T03:24:44.212Z,4.20
2019-03-06T03:27:13.664Z,4.20
2019-03-06T03:29:43.159Z,4.30
2019-03-06T03:32:12.620Z,4.30
2019-03-06T03:34:42.069Z,4.40
2019-03-06T03:37:11.504Z,4.40
2019-03-06T03:39:40.932Z,4.40
2019-03-06T03:42:10.470Z,4.50
2019-03-06T03:44:39.887Z,4.50
2019-03-06T03:47:09.402Z,4.60
2019-03-06T03:49:39.385Z,4.60
2019-03-06T03:52:08.830Z,4.60
2019-03-06T03:54:38.277Z,4.50
2019-03-06T03:57:07.720Z,4.50
2019-03-06T03:59:37.228Z,4.50
2019-03-06T04:02:06.663Z,4.50
2019-03-06T04:04:36.105Z,4.50
2019-03-06T04:07:05.617Z,4.50
2019-03-06T04:09:35.064Z,4.60
2019-03-06T04:12:04.485Z,4.60
2019-03-06T04:14:33.937Z,4.60
2019-03-06T04:17:03.451Z,4.70
2019-03-06T04:19:33.284Z,4.70
2019-03-06T04:22:03.386Z,4.80
2019-03-06T04:24:33.508Z,4.80
2019-03-06T04:27:03.621Z,4.90
2019-03-06T04:29:33.885Z,4.90
2019-03-06T04:32:04.080Z,4.90
2019-03-06T04:34:35.714Z,5.00
2019-03-06T04:37:05.163Z,5.00
2019-03-06T04:39:36.573Z,5.00
2019-03-06T04:42:05.671Z,5.00
2019-03-06T04:44:35.091Z,5.10
2019-03-06T04:47:04.754Z,5.10
2019-03-06T04:49:34.835Z,5.10
2019-03-06T04:52:04.977Z,5.10
2019-03-06T04:54:35.185Z,5.10
2019-03-06T04:57:05.412Z,5.10
2019-03-06T04:59:35.440Z,5.20
2019-03-06T05:02:05.758Z,5.20
2019-03-06T05:04:38.159Z,5.20
2019-03-06T05:07:07.618Z,5.20
2019-03-06T05:09:37.068Z,5.30
2019-03-06T05:12:06.594Z,5.30
2019-03-06T05:14:36.958Z,5.40
2019-03-06T05:17:08.900Z,5.40
2019-03-06T05:19:38.514Z,5.40
2019-03-06T05:22:08.169Z,5.40
2019-03-06T05:24:37.631Z,5.40
2019-03-06T05:27:07.779Z,5.50
2019-03-06T05:29:37.846Z,5.50
2019-03-06T05:32:33.738Z,5.60
2019-03-06T05:35:12.261Z,5.60
2019-03-06T05:38:12.020Z,5.60
2019-03-06T05:40:41.539Z,5.70
2019-03-06T05:43:11.319Z,5.70
2019-03-06T05:45:40.758Z,5.70
2019-03-06T05:48:10.218Z,5.70
2019-03-06T05:50:42.180Z,5.70
2019-03-06T05:53:11.638Z,5.80
2019-03-06T05:55:41.094Z,5.80
2019-03-06T05:58:10.850Z,5.80
2019-03-06T06:00:40.282Z,5.80
2019-03-06T06:03:10.262Z,5.80
2019-03-06T06:05:40.246Z,5.90
2019-03-06T06:08:10.343Z,5.90
2019-03-06T06:10:40.454Z,6.00
2019-03-06T06:13:10.574Z,6.00
2019-03-06T06:15:40.894Z,6.10
2019-03-06T06:18:10.811Z,6.10
2019-03-06T06:20:41.024Z,6.20
2019-03-06T06:23:28.976Z,6.20
2019-03-06T06:25:58.425Z,6.30
2019-03-06T06:28:27.849Z,6.30
2019-03-06T06:30:57.231Z,6.30
2019-03-06T06:33:26.660Z,6.40
2019-03-06T06:35:56.026Z,6.50
2019-03-06T06:38:25.461Z,6.60
2019-03-06T06:40:54.966Z,6.60
2019-03-06T06:43:24.464Z,6.70
2019-03-06T06:45:53.922Z,6.80
2019-03-06T06:48:25.602Z,6.80
2019-03-06T06:51:01.586Z,6.80
2019-03-06T06:53:35.155Z,6.80
2019-03-06T06:56:24.275Z,6.90
2019-03-06T06:59:22.708Z,6.80
2019-03-06T07:02:05.792Z,6.90
2019-03-06T07:05:02.670Z,6.90
2019-03-06T07:07:33.756Z,6.90
2019-03-06T07:10:21.238Z,6.90
2019-03-06T07:12:55.189Z,7.00
2019-03-06T07:15:35.216Z,7.00
2019-03-06T07:18:15.118Z,7.10
2019-03-06T07:20:55.590Z,7.10
2019-03-06T07:23:44.172Z,7.20
2019-03-06T07:26:24.428Z,7.20
2019-03-06T07:28:55.522Z,7.30
2019-03-06T07:31:26.608Z,7.30
2019-03-06T07:33:57.802Z,7.40
2019-03-06T07:36:45.302Z,7.40
2019-03-06T07:39:22.165Z,7.40
2019-03-06T07:42:05.558Z,7.50
2019-03-06T07:44:48.787Z,7.50
2019-03-06T07:47:37.235Z,7.60
2019-03-06T07:50:14.125Z,7.60
2019-03-06T07:52:55.378Z,7.50
2019-03-06T07:55:32.304Z,7.60
2019-03-06T07:58:30.538Z,7.70
2019-03-06T08:01:00.005Z,7.70
2019-03-06T08:03:29.446Z,7.70
2019-03-06T08:05:58.899Z,7.80
2019-03-06T08:08:28.330Z,7.80
2019-03-06T08:10:58.555Z,7.90
2019-03-06T08:13:29.633Z,8.00
2019-03-06T08:16:00.802Z,8.10
2019-03-06T08:18:47.946Z,8.10
2019-03-06T08:21:29.119Z,8.00
2019-03-06T08:24:06.183Z,8.00
2019-03-06T08:26:35.721Z,8.00
2019-03-06T08:29:05.224Z,8.10
2019-03-06T08:31:39.068Z,8.10
2019-03-06T08:34:09.463Z,8.10
2019-03-06T08:36:39.010Z,8.10
2019-03-06T08:39:17.027Z,8.10
2019-03-06T08:41:46.701Z,8.10
2019-03-06T08:44:16.118Z,8.20
2019-03-06T08:46:50.049Z,8.30
2019-03-06T08:49:33.870Z,8.40
2019-03-06T08:52:11.126Z,8.30
2019-03-06T08:54:47.740Z,8.40
2019-03-06T08:57:24.618Z,8.60
2019-03-06T08:59:58.783Z,8.70
2019-03-06T09:02:38.812Z,8.70
2019-03-06T09:05:21.154Z,8.70
2019-03-06T09:07:52.756Z,8.70
2019-03-06T09:10:26.647Z,8.80
2019-03-06T09:13:00.400Z,8.80
2019-03-06T09:15:47.677Z,9.00
2019-03-06T09:18:25.026Z,8.90
2019-03-06T09:21:05.063Z,8.80
2019-03-06T09:23:38.700Z,8.80
2019-03-06T09:26:18.758Z,8.80
2019-03-06T09:28:50.010Z,8.90
2019-03-06T09:31:21.148Z,9.00
2019-03-06T09:33:53.497Z,9.20
2019-03-06T09:36:27.491Z,9.30
2019-03-06T09:39:13.645Z,9.40
2019-03-06T09:41:50.507Z,9.50
2019-03-06T09:44:30.969Z,9.50
2019-03-06T09:47:18.498Z,9.40
2019-03-06T09:49:55.264Z,9.30
2019-03-06T09:52:43.331Z,9.30
2019-03-06T09:55:29.338Z,9.30
2019-03-06T09:58:00.435Z,9.60
2019-03-06T10:00:37.481Z,9.80
2019-03-06T10:03:17.252Z,9.90
2019-03-06T10:05:51.693Z,10.00
2019-03-06T10:08:31.566Z,10.20
2019-03-06T10:11:02.645Z,10.20
2019-03-06T10:13:41.578Z,10.30
2019-03-06T10:16:12.525Z,10.50
2019-03-06T10:18:49.943Z,10.60
2019-03-06T10:21:19.443Z,10.70
2019-03-06T10:23:52.055Z,10.90
2019-03-06T10:26:21.827Z,10.80
2019-03-06T10:28:51.427Z,10.70
2019-03-06T10:31:21.139Z,10.70
2019-03-06T10:33:50.659Z,10.80
2019-03-06T10:36:20.100Z,10.90
2019-03-06T10:38:49.629Z,10.90
2019-03-06T10:41:19.253Z,10.90
2019-03-06T10:43:49.239Z,10.80
2019-03-06T10:46:19.420Z,10.80
2019-03-06T10:48:49.007Z,10.80
2019-03-06T10:51:18.897Z,10.90
2019-03-06T10:53:48.428Z,10.90
2019-03-06T10:56:18.055Z,11.00
2019-03-06T10:58:47.512Z,11.20
2019-03-06T11:01:17.328Z,11.20
2019-03-06T11:03:54.594Z,11.30
2019-03-06T11:06:25.355Z,11.50
2019-03-06T11:08:54.863Z,11.30
2019-03-06T11:11:24.464Z,11.30
2019-03-06T11:13:54.067Z,11.50
2019-03-06T11:16:23.577Z,11.60
2019-03-06T11:18:53.199Z,11.60
2019-03-06T11:21:22.725Z,11.60
2019-03-06T11:23:52.317Z,11.50
2019-03-06T11:26:21.980Z,11.70
2019-03-06T11:28:51.509Z,11.70
2019-03-06T11:31:21.311Z,11.80
2019-03-06T11:33:50.839Z,11.90
2019-03-06T11:36:20.705Z,11.80
2019-03-06T11:38:50.159Z,11.70
2019-03-06T11:41:19.676Z,11.80
2019-03-06T11:43:49.123Z,12.00
2019-03-06T11:46:19.535Z,12.20
2019-03-06T11:48:49.231Z,12.30
2019-03-06T11:51:18.862Z,12.10
2019-03-06T11:53:48.387Z,12.00
2019-03-06T11:56:19.760Z,12.10
2019-03-06T11:58:49.528Z,12.10
2019-03-06T12:01:20.855Z,12.20
2019-03-06T12:03:51.019Z,12.20
2019-03-06T12:06:20.525Z,12.20
2019-03-06T12:08:50.064Z,12.20
2019-03-06T12:11:19.731Z,12.10
2019-03-06T12:13:49.541Z,12.00
2019-03-06T12:16:19.853Z,12.00
2019-03-06T12:18:49.419Z,12.00
2019-03-06T12:21:18.996Z,11.80
2019-03-06T12:23:48.465Z,11.80
2019-03-06T12:26:17.959Z,11.80
2019-03-06T12:28:47.976Z,11.90
2019-03-06T12:31:17.407Z,11.90
2019-03-06T12:33:46.986Z,11.90
2019-03-06T12:36:16.431Z,11.80
2019-03-06T12:38:45.957Z,11.80
2019-03-06T12:41:17.187Z,11.60
2019-03-06T12:43:46.717Z,11.70
2019-03-06T12:46:23.619Z,11.70
2019-03-06T12:48:56.180Z,11.70
2019-03-06T12:51:25.810Z,11.70
2019-03-06T12:53:55.333Z,11.80
2019-03-06T12:56:24.853Z,12.00
2019-03-06T12:58:57.259Z,11.90
2019-03-06T13:01:26.705Z,11.80
2019-03-06T13:03:56.301Z,11.80
2019-03-06T13:06:25.996Z,11.70
2019-03-06T13:08:56.512Z,11.80
2019-03-06T13:11:26.109Z,12.00
2019-03-06T13:13:55.717Z,12.10
2019-03-06T13:16:25.568Z,12.00
2019-03-06T13:18:55.177Z,12.10
2019-03-06T13:21:24.712Z,12.10
2019-03-06T13:23:54.209Z,12.10
2019-03-06T13:26:23.676Z,11.90
2019-03-06T13:28:57.419Z,11.90
2019-03-06T13:31:24.262Z,12.00
2019-03-06T13:33:55.548Z,12.00
2019-03-06T13:36:25.232Z,12.10
2019-03-06T13:38:59.133Z,12.10
2019-03-06T13:41:26.718Z,12.30
2019-03-06T13:43:56.152Z,12.30
2019-03-06T13:46:25.736Z,12.40
2019-03-06T13:48:55.160Z,12.40
2019-03-06T13:51:24.692Z,12.50
2019-03-06T13:53:54.210Z,12.50
2019-03-06T13:56:23.827Z,12.40
2019-03-06T13:58:53.322Z,12.40
2019-03-06T14:01:23.151Z,12.40
2019-03-06T14:03:53.918Z,12.50
2019-03-06T14:06:23.408Z,12.40
2019-03-06T14:08:52.934Z,12.40
2019-03-06T14:11:22.724Z,12.50
2019-03-06T14:13:52.338Z,12.60
2019-03-06T14:16:22.044Z,12.70
2019-03-06T14:18:51.552Z,12.70
2019-03-06T14:21:21.932Z,12.80
2019-03-06T14:23:51.450Z,12.90
2019-03-06T14:26:24.035Z,13.00
2019-03-06T14:28:53.737Z,12.90
2019-03-06T14:31:23.302Z,12.90
2019-03-06T14:33:53.118Z,12.80
2019-03-06T14:36:22.677Z,12.80
2019-03-06T14:38:52.194Z,12.80
2019-03-06T14:41:21.878Z,12.80
2019-03-06T14:43:51.517Z,12.80
2019-03-06T14:46:22.014Z,12.70
2019-03-06T14:48:51.560Z,12.70
2019-03-06T14:51:21.136Z,12.60
2019-03-06T14:53:51.764Z,12.60
2019-03-06T14:56:21.192Z,12.60
2019-03-06T14:58:50.806Z,12.60
2019-03-06T15:01:20.224Z,12.60
2019-03-06T15:03:49.737Z,12.60
2019-03-06T15:06:19.357Z,12.60
2019-03-06T15:08:48.783Z,12.50
2019-03-06T15:11:18.504Z,12.60
2019-03-06T15:13:47.936Z,12.60
2019-03-06T15:16:17.397Z,12.50
2019-03-06T15:18:46.908Z,12.50
2019-03-06T15:21:16.435Z,12.40
2019-03-06T15:23:45.874Z,12.40
2019-03-06T15:26:15.675Z,12.40
2019-03-06T15:28:48.081Z,12.50
2019-03-06T15:31:17.413Z,12.50
2019-03-06T15:33:46.851Z,12.50
2019-03-06T15:36:16.446Z,12.50
2019-03-06T15:38:46.213Z,12.50
2019-03-06T15:41:15.691Z,12.40
2019-03-06T15:43:45.425Z,12.40
2019-03-06T15:46:15.018Z,12.40
2019-03-06T15:48:44.461Z,12.40
2019-03-06T15:51:14.006Z,12.40
2019-03-06T15:53:44.397Z,12.40
2019-03-06T15:56:15.068Z,12.40
2019-03-06T15:58:44.641Z,12.30
2019-03-06T16:01:14.119Z,12.30
2019-03-06T16:03:43.882Z,12.30
2019-03-06T16:06:20.379Z,12.20
2019-03-06T16:08:45.357Z,12.20
2019-03-06T16:11:14.800Z,12.20
2019-03-06T16:13:44.338Z,12.20
2019-03-06T16:16:14.622Z,12.10
2019-03-06T16:18:46.111Z,12.10
2019-03-06T16:21:15.622Z,12.00
2019-03-06T16:23:45.155Z,12.00
2019-03-06T16:26:15.204Z,12.10
2019-03-06T16:28:45.323Z,12.00
2019-03-06T16:31:16.160Z,12.00
2019-03-06T16:33:45.718Z,12.00
2019-03-06T16:36:15.890Z,11.80
2019-03-06T16:38:46.606Z,11.80
2019-03-06T16:41:16.051Z,11.70
2019-03-06T16:43:47.241Z,11.70
2019-03-06T16:46:16.903Z,11.70
2019-03-06T16:48:46.363Z,11.70
2019-03-06T16:51:16.851Z,11.70
2019-03-06T16:53:46.892Z,11.70
2019-03-06T16:56:16.986Z,11.70
2019-03-06T16:58:47.913Z,11.60
2019-03-06T17:01:17.987Z,11.60
2019-03-06T17:03:47.578Z,11.70
2019-03-06T17:06:18.497Z,11.70
2019-03-06T17:08:48.048Z,11.70
2019-03-06T17:11:18.183Z,11.70
2019-03-06T17:13:48.718Z,11.60
2019-03-06T17:16:18.504Z,11.70
2019-03-06T17:18:48.723Z,11.60
2019-03-06T17:21:21.511Z,11.60
2019-03-06T17:23:51.120Z,11.60
2019-03-06T17:26:22.536Z,11.60
2019-03-06T17:28:52.138Z,11.50
2019-03-06T17:31:21.648Z,11.50
2019-03-06T17:33:51.698Z,11.40
2019-03-06T17:36:21.987Z,11.40
2019-03-06T17:38:51.748Z,11.30
2019-03-06T17:41:22.050Z,11.30
2019-03-06T17:43:52.086Z,11.40
2019-03-06T17:46:22.272Z,11.40
2019-03-06T17:48:52.380Z,11.30
2019-03-06T17:51:22.512Z,11.30
2019-03-06T17:53:54.114Z,11.20
2019-03-06T17:56:23.625Z,11.20
2019-03-06T17:58:53.360Z,11.20
2019-03-06T18:01:23.427Z,11.10
2019-03-06T18:03:58.407Z,11.10
2019-03-06T18:06:28.690Z,11.00
2019-03-06T18:09:02.877Z,11.00
2019-03-06T18:11:33.955Z,11.00
2019-03-06T18:14:04.649Z,10.90
2019-03-06T18:16:37.287Z,10.90
2019-03-06T18:19:06.951Z,10.80
2019-03-06T18:21:38.246Z,10.90
2019-03-06T18:24:07.818Z,10.90
2019-03-06T18:26:42.438Z,10.80
2019-03-06T18:29:12.463Z,10.90
2019-03-06T18:31:42.085Z,10.90
2019-03-06T18:34:11.710Z,10.90
2019-03-06T18:36:41.263Z,10.90
2019-03-06T18:39:15.452Z,10.90
2019-03-06T18:41:44.897Z,10.80
2019-03-06T18:44:16.249Z,10.80
2019-03-06T18:46:46.058Z,10.70
2019-03-06T18:49:15.602Z,10.70
2019-03-06T18:51:48.343Z,10.70
2019-03-06T18:54:17.850Z,10.70
2019-03-06T18:56:51.095Z,10.80
2019-03-06T18:59:21.124Z,10.80
2019-03-06T19:01:52.122Z,10.80
2019-03-06T19:04:21.593Z,10.70
2019-03-06T19:06:52.232Z,10.70
2019-03-06T19:09:22.253Z,10.70
2019-03-06T19:11:55.412Z,10.70
2019-03-06T19:14:24.958Z,10.70
2019-03-06T19:16:57.703Z,10.70
2019-03-06T19:19:27.228Z,10.70
2019-03-06T19:21:58.762Z,10.70
2019-03-06T19:24:28.334Z,10.70
2019-03-06T19:26:58.462Z,10.70
2019-03-06T19:29:31.064Z,10.70
2019-03-06T19:32:00.650Z,10.70
2019-03-06T19:34:30.164Z,10.80
2019-03-06T19:36:59.847Z,10.80
2019-03-06T19:39:33.252Z,10.70
2019-03-06T19:42:03.997Z,10.70
2019-03-06T19:44:33.438Z,10.70
2019-03-06T19:47:05.000Z,10.70
2019-03-06T19:49:34.522Z,10.70
2019-03-06T19:52:06.886Z,10.80
2019-03-06T19:54:37.764Z,10.70
2019-03-06T19:57:08.872Z,10.80
2019-03-06T19:59:49.345Z,10.80
2019-03-06T20:02:20.730Z,10.80
2019-03-06T20:04:50.660Z,10.80
2019-03-06T20:07:21.405Z,10.80
2019-03-06T20:09:51.073Z,10.80
2019-03-06T20:12:22.254Z,10.90
2019-03-06T20:14:51.864Z,10.90
2019-03-06T20:17:22.329Z,10.90
2019-03-06T20:19:53.833Z,10.90
2019-03-06T20:22:24.221Z,10.90
2019-03-06T20:24:54.510Z,11.00
2019-03-06T20:27:24.123Z,11.00
2019-03-06T20:29:53.946Z,11.00
2019-03-06T20:32:23.482Z,11.00
2019-03-06T20:34:54.022Z,11.00
2019-03-06T20:37:23.596Z,11.00
2019-03-06T20:39:53.205Z,11.00
2019-03-06T20:42:23.863Z,11.10
2019-03-06T20:44:54.800Z,11.10
2019-03-06T20:47:24.260Z,11.10
2019-03-06T20:49:56.214Z,11.10
2019-03-06T20:52:28.019Z,11.00
2019-03-06T20:54:57.671Z,11.00
2019-03-06T20:57:27.628Z,11.10
2019-03-06T20:59:58.634Z,11.10
2019-03-06T21:02:28.183Z,11.10
2019-03-06T21:04:57.930Z,11.10
2019-03-06T21:07:27.476Z,11.10
2019-03-06T21:09:57.003Z,11.20
2019-03-06T21:12:27.130Z,11.20
2019-03-06T21:14:56.989Z,11.20
2019-03-06T21:17:26.501Z,11.20
2019-03-06T21:19:55.948Z,11.20
2019-03-06T21:22:25.787Z,11.20
2019-03-06T21:24:55.380Z,11.20
2019-03-06T21:27:24.812Z,11.20
2019-03-06T21:29:54.423Z,11.20
2019-03-06T21:32:23.886Z,11.20
2019-03-06T21:34:56.242Z,11.20
2019-03-06T21:37:25.684Z,11.30
2019-03-06T21:39:59.055Z,11.30
2019-03-06T21:42:28.644Z,11.30
2019-03-06T21:44:59.203Z,11.30
2019-03-06T21:47:28.845Z,11.30
2019-03-06T21:49:58.301Z,11.40
2019-03-06T21:52:28.862Z,11.40
2019-03-06T21:54:59.620Z,11.40
2019-03-06T21:57:29.109Z,11.40
2019-03-06T21:59:59.644Z,11.40
2019-03-06T22:02:29.089Z,11.40
2019-03-06T22:04:58.535Z,11.40
2019-03-06T22:07:28.053Z,11.40
2019-03-06T22:09:57.487Z,11.40
2019-03-06T22:12:26.939Z,11.40
2019-03-06T22:14:56.385Z,11.40
2019-03-06T22:17:25.855Z,11.40
2019-03-06T22:19:55.962Z,11.50
2019-03-06T22:22:25.484Z,11.40
2019-03-06T22:24:54.931Z,11.50
2019-03-06T22:27:24.372Z,11.40
2019-03-06T22:29:55.080Z,11.50
2019-03-06T22:32:24.530Z,11.50
2019-03-06T22:34:54.031Z,11.50
2019-03-06T22:37:23.553Z,11.50
2019-03-06T22:39:55.564Z,11.50
2019-03-06T22:42:25.095Z,11.50
2019-03-06T22:44:54.639Z,11.60
2019-03-06T22:47:24.165Z,11.60
2019-03-06T22:49:53.669Z,11.60
2019-03-06T22:52:23.257Z,11.60
2019-03-06T22:54:52.693Z,11.60
2019-03-06T22:57:22.135Z,11.60
2019-03-06T22:59:51.579Z,11.60
2019-03-06T23:02:23.271Z,11.60
2019-03-06T23:04:52.774Z,11.70
2019-03-06T23:07:22.295Z,11.60
2019-03-06T23:09:51.749Z,11.60
2019-03-06T23:12:21.267Z,11.60
2019-03-06T23:14:50.701Z,11.60
2019-03-06T23:17:22.185Z,11.60
2019-03-06T23:19:52.668Z,11.60
2019-03-06T23:22:22.127Z,11.70
2019-03-06T23:24:51.672Z,11.70
2019-03-06T23:27:21.171Z,11.70
2019-03-06T23:29:50.672Z,11.80
2019-03-06T23:32:20.130Z,11.70
2019-03-06T23:34:49.541Z,11.70
2019-03-06T23:37:18.983Z,11.80
2019-03-06T23:39:48.405Z,11.80
2019-03-06T23:42:17.925Z,11.80
2019-03-06T23:44:47.481Z,11.80
2019-03-06T23:47:17.031Z,11.80
2019-03-06T23:49:46.465Z,11.80
2019-03-06T23:52:20.481Z,11.80
2019-03-06T23:54:49.905Z,11.80
2019-03-06T23:57:19.407Z,11.80
2019-03-06T23:59:48.835Z,11.80
